createdAt,value
2024-05-09T00:02:57.542Z,19.33
2024-05-09T00:06:00.268Z,19.31
2024-05-09T00:09:03.070Z,19.36
2024-05-09T00:12:05.718Z,19.31
2024-05-09T00:15:08.715Z,19.33
2024-05-09T00:18:11.449Z,19.33
2024-05-09T00:21:14.179Z,19.37
2024-05-09T00:24:16.710Z,19.30
2024-05-09T00:27:19.335Z,19.29
2024-05-09T00:30:31.046Z,19.27
2024-05-09T00:33:37.433Z,19.37
2024-05-09T00:36:40.059Z,19.28
2024-05-09T00:39:42.637Z,19.32
2024-05-09T00:42:47.205Z,19.35
2024-05-09T00:45:49.778Z,19.26
2024-05-09T00:48:52.542Z,19.26
2024-05-09T00:51:56.324Z,19.27
2024-05-09T00:54:59.846Z,19.29
2024-05-09T00:58:03.376Z,19.24
2024-05-09T01:01:06.623Z,19.23
2024-05-09T01:04:09.443Z,19.23
2024-05-09T01:07:12.904Z,19.25
2024-05-09T01:10:21.216Z,19.33
2024-05-09T01:13:30.232Z,19.22
2024-05-09T01:16:33.264Z,19.21
2024-05-09T01:19:35.979Z,19.22
2024-05-09T01:22:39.370Z,19.32
2024-05-09T01:25:41.944Z,19.19
2024-05-09T01:28:44.581Z,19.21
2024-05-09T01:31:47.781Z,19.30
2024-05-09T01:34:50.487Z,19.25
2024-05-09T01:37:53.179Z,19.29
2024-05-09T01:40:55.891Z,19.19
2024-05-09T01:43:58.469Z,19.19
2024-05-09T01:47:01.076Z,19.23
2024-05-09T01:50:06.615Z,19.21
2024-05-09T01:53:13.854Z,19.27
2024-05-09T01:56:17.074Z,19.16
2024-05-09T01:59:20.460Z,19.26
2024-05-09T02:02:23.135Z,19.21
2024-05-09T02:05:25.816Z,19.26
2024-05-09T02:08:28.482Z,19.25
2024-05-09T02:11:31.110Z,19.15
2024-05-09T02:14:33.831Z,19.25
2024-05-09T02:17:36.561Z,19.17
2024-05-09T02:20:40.810Z,19.23
2024-05-09T02:23:43.603Z,19.13
2024-05-09T02:26:46.363Z,19.22
2024-05-09T02:29:48.924Z,19.15
2024-05-09T02:32:51.593Z,19.07
2024-05-09T02:35:54.193Z,19.19
2024-05-09T02:38:56.747Z,19.08
2024-05-09T02:41:59.310Z,19.08
2024-05-09T02:45:02.140Z,19.10
2024-05-09T02:48:05.347Z,19.16
2024-05-09T02:51:08.246Z,19.04
2024-05-09T02:54:12.602Z,19.14
2024-05-09T02:57:15.162Z,19.08
2024-05-09T03:00:22.830Z,19.03
2024-05-09T03:03:31.758Z,19.01
2024-05-09T03:06:34.481Z,19.02
2024-05-09T03:09:36.992Z,18.99
2024-05-09T03:12:39.594Z,19.00
2024-05-09T03:15:42.833Z,19.00
2024-05-09T03:18:45.950Z,18.95
2024-05-09T03:21:48.521Z,19.05
2024-05-09T03:24:51.160Z,18.95
2024-05-09T03:27:53.837Z,18.94
2024-05-09T03:30:56.429Z,18.92
2024-05-09T03:33:59.135Z,18.98
2024-05-09T03:37:01.811Z,18.92
2024-05-09T03:40:09.190Z,18.93
2024-05-09T03:43:14.672Z,19.01
2024-05-09T03:46:17.450Z,18.95
2024-05-09T03:49:20.222Z,18.97
2024-05-09T03:52:22.803Z,18.93
2024-05-09T03:55:25.361Z,18.91
2024-05-09T03:58:27.894Z,18.91
2024-05-09T04:01:30.532Z,18.90
2024-05-09T04:04:33.320Z,18.95
2024-05-09T04:07:37.448Z,19.00
2024-05-09T04:10:40.709Z,19.00
2024-05-09T04:13:43.522Z,19.05
2024-05-09T04:16:46.124Z,18.97
2024-05-09T04:19:48.682Z,18.95
2024-05-09T04:22:52.102Z,19.01
2024-05-09T04:25:54.900Z,18.95
2024-05-09T04:28:57.468Z,18.98
2024-05-09T04:32:00.129Z,19.04
2024-05-09T04:35:03.067Z,19.05
2024-05-09T04:38:06.245Z,19.00
2024-05-09T04:41:09.078Z,18.98
2024-05-09T04:44:11.681Z,19.08
2024-05-09T04:47:14.381Z,19.00
2024-05-09T04:50:24.676Z,19.11
2024-05-09T04:53:32.130Z,19.09
2024-05-09T04:56:34.799Z,19.14
2024-05-09T04:59:37.451Z,19.17
2024-05-09T05:02:40.200Z,19.01
2024-05-09T05:05:44.580Z,19.13
2024-05-09T05:08:48.100Z,19.23
2024-05-09T05:11:50.765Z,19.18
2024-05-09T05:14:53.495Z,19.18
2024-05-09T05:17:58.243Z,19.18
2024-05-09T05:21:01.271Z,19.19
2024-05-09T05:24:04.106Z,19.19
2024-05-09T05:27:06.769Z,19.08
2024-05-09T05:30:14.772Z,19.24
2024-05-09T05:33:23.738Z,19.20
2024-05-09T05:36:26.495Z,19.09
2024-05-09T05:39:29.247Z,19.19
2024-05-09T05:42:31.793Z,19.27
2024-05-09T05:45:34.497Z,19.21
2024-05-09T05:48:37.172Z,19.30
2024-05-09T05:51:39.829Z,19.32
2024-05-09T05:54:42.359Z,19.28
2024-05-09T05:57:45.441Z,19.29
2024-05-09T06:00:48.269Z,19.20
2024-05-09T06:03:51.494Z,19.35
2024-05-09T06:06:54.500Z,19.31
2024-05-09T06:09:57.039Z,19.40
2024-05-09T06:12:59.581Z,19.44
2024-05-09T06:16:04.843Z,19.44
2024-05-09T06:19:07.411Z,19.46
2024-05-09T06:22:11.128Z,19.50
2024-05-09T06:25:14.051Z,19.52
2024-05-09T06:28:16.568Z,19.49
2024-05-09T06:31:21.166Z,19.54
2024-05-09T06:34:24.319Z,19.51
2024-05-09T06:37:26.967Z,19.56
2024-05-09T06:40:36.914Z,19.57
2024-05-09T06:43:42.354Z,19.58
2024-05-09T06:46:46.689Z,19.55
2024-05-09T06:49:52.538Z,19.59
2024-05-09T06:52:55.250Z,19.64
2024-05-09T06:55:58.358Z,19.68
2024-05-09T06:59:01.070Z,19.54
2024-05-09T07:02:04.833Z,19.66
2024-05-09T07:05:07.660Z,19.53
2024-05-09T07:08:10.509Z,19.67
2024-05-09T07:11:13.305Z,19.78
2024-05-09T07:14:15.907Z,20.00
2024-05-09T07:17:18.742Z,20.21
2024-05-09T07:20:32.168Z,20.46
2024-05-09T07:23:37.583Z,20.63
2024-05-09T07:26:40.349Z,20.75
2024-05-09T07:29:43.202Z,20.90
2024-05-09T07:32:46.214Z,21.06
2024-05-09T07:35:49.099Z,21.19
2024-05-09T07:38:51.880Z,21.28
2024-05-09T07:41:57.513Z,21.41
2024-05-09T07:45:14.914Z,21.50
2024-05-09T07:54:34.528Z,21.78
2024-05-09T07:57:37.482Z,21.85
2024-05-09T08:00:40.373Z,21.86
2024-05-09T08:03:43.198Z,21.97
2024-05-09T08:06:46.176Z,22.02
2024-05-09T08:09:49.056Z,22.04
2024-05-09T08:12:54.057Z,22.03
2024-05-09T08:15:56.764Z,22.01
2024-05-09T08:18:59.526Z,21.94
2024-05-09T08:22:07.136Z,21.84
2024-05-09T08:25:11.895Z,21.84
2024-05-09T08:28:16.470Z,21.74
2024-05-09T08:31:21.991Z,21.72
2024-05-09T08:34:25.709Z,21.69
2024-05-09T08:37:32.861Z,21.71
2024-05-09T08:40:39.607Z,21.68
2024-05-09T08:43:44.283Z,21.59
2024-05-09T08:46:48.773Z,21.56
2024-05-09T08:49:51.964Z,21.39
2024-05-09T08:52:54.643Z,21.56
2024-05-09T08:56:01.508Z,21.46
2024-05-09T08:59:06.840Z,21.55
2024-05-09T09:02:12.449Z,21.50
2024-05-09T09:05:21.472Z,21.51
2024-05-09T09:08:24.828Z,21.48
2024-05-09T09:11:27.641Z,21.51
2024-05-09T09:14:30.263Z,21.46
2024-05-09T09:17:33.095Z,21.48
2024-05-09T09:20:37.335Z,21.47
2024-05-09T09:23:40.083Z,21.44
2024-05-09T09:26:45.128Z,21.45
2024-05-09T09:29:49.620Z,21.42
2024-05-09T09:32:52.546Z,21.35
2024-05-09T09:35:55.221Z,21.37
2024-05-09T09:38:57.930Z,21.34
2024-05-09T09:42:01.249Z,21.30
2024-05-09T09:45:07.375Z,21.31
2024-05-09T09:48:10.925Z,21.29
2024-05-09T09:51:14.058Z,21.31
2024-05-09T09:54:18.042Z,21.26
2024-05-09T09:57:20.696Z,21.31
2024-05-09T10:00:29.947Z,21.30
2024-05-09T10:03:35.742Z,21.27
2024-05-09T10:06:44.089Z,21.27
2024-05-09T10:09:47.149Z,21.25
2024-05-09T10:13:08.863Z,21.20
2024-05-09T10:16:20.643Z,21.22
2024-05-09T10:19:27.330Z,21.16
2024-05-09T10:22:31.027Z,21.13
2024-05-09T10:25:36.527Z,21.18
2024-05-09T10:28:44.082Z,21.20
2024-05-09T10:31:47.519Z,21.15
2024-05-09T10:35:15.085Z,21.16
2024-05-09T10:38:18.081Z,21.19
2024-05-09T10:41:25.289Z,21.12
2024-05-09T10:44:28.613Z,21.12
2024-05-09T10:47:31.523Z,21.14
2024-05-09T10:50:34.761Z,21.08
2024-05-09T10:53:45.033Z,21.17
2024-05-09T10:56:56.154Z,21.16
2024-05-09T11:03:02.387Z,21.12
2024-05-09T11:06:05.798Z,21.12
2024-05-09T11:09:08.917Z,21.09
2024-05-09T11:12:14.306Z,21.08
2024-05-09T11:15:17.603Z,21.10
2024-05-09T11:18:25.889Z,21.07
2024-05-09T11:21:29.687Z,21.02
2024-05-09T11:24:33.201Z,20.99
2024-05-09T11:27:36.041Z,21.06
2024-05-09T11:30:38.724Z,20.99
2024-05-09T11:33:44.053Z,21.07
2024-05-09T11:36:47.374Z,21.01
2024-05-09T11:39:50.159Z,21.07
2024-05-09T11:42:53.383Z,21.05
2024-05-09T11:45:59.738Z,21.05
2024-05-09T11:49:02.746Z,21.03
2024-05-09T11:52:05.615Z,21.07
2024-05-09T11:55:08.920Z,21.06
2024-05-09T11:58:17.532Z,21.05
2024-05-09T12:01:22.169Z,21.05
2024-05-09T12:04:26.453Z,21.05
2024-05-09T12:07:29.273Z,21.03
2024-05-09T12:10:34.475Z,20.98
2024-05-09T12:13:38.531Z,20.89
2024-05-09T12:16:41.410Z,21.01
2024-05-09T12:19:44.156Z,21.00
2024-05-09T12:22:47.651Z,20.98
2024-05-09T12:25:50.229Z,21.01
2024-05-09T12:28:52.866Z,21.00
2024-05-09T12:31:55.550Z,20.99
2024-05-09T12:34:58.129Z,21.00
2024-05-09T12:38:00.839Z,21.00
2024-05-09T12:41:03.501Z,21.00
2024-05-09T12:44:06.194Z,20.93
2024-05-09T12:47:08.738Z,20.99
2024-05-09T12:50:21.828Z,20.92
2024-05-09T12:53:27.953Z,20.86
2024-05-09T12:56:30.767Z,20.90
2024-05-09T12:59:33.362Z,21.00
2024-05-09T13:02:36.285Z,20.98
2024-05-09T13:05:41.660Z,20.95
2024-05-09T13:08:44.517Z,20.99
2024-05-09T13:11:47.142Z,20.97
2024-05-09T13:14:49.768Z,20.89
2024-05-09T13:17:52.911Z,20.98
2024-05-09T13:20:56.198Z,20.98
2024-05-09T13:24:00.343Z,20.97
2024-05-09T13:27:03.190Z,20.87
2024-05-09T13:30:11.857Z,20.91
2024-05-09T13:33:17.380Z,20.91
2024-05-09T13:36:20.032Z,20.84
2024-05-09T13:39:22.593Z,20.88
2024-05-09T13:42:25.296Z,20.78
2024-05-09T13:45:27.868Z,20.80
2024-05-09T13:48:30.746Z,20.80
2024-05-09T13:51:33.388Z,20.89
2024-05-09T13:54:38.490Z,20.90
2024-05-09T13:57:41.153Z,20.78
2024-05-09T14:00:48.188Z,20.80
2024-05-09T14:03:52.015Z,20.82
2024-05-09T14:06:54.870Z,20.83
2024-05-09T14:09:57.499Z,20.89
2024-05-09T14:13:01.271Z,20.85
2024-05-09T14:16:04.509Z,20.88
2024-05-09T14:19:07.215Z,20.82
2024-05-09T14:22:10.104Z,20.85
2024-05-09T14:25:13.165Z,20.82
2024-05-09T14:28:15.896Z,20.82
2024-05-09T14:31:18.490Z,20.77
2024-05-09T14:34:21.365Z,20.80
2024-05-09T14:37:24.068Z,20.79
2024-05-09T14:40:37.033Z,20.81
2024-05-09T14:43:46.696Z,20.75
2024-05-09T14:46:49.426Z,20.80
2024-05-09T14:49:52.136Z,20.80
2024-05-09T14:52:54.777Z,20.81
2024-05-09T14:55:57.870Z,20.76
2024-05-09T14:59:00.533Z,20.69
2024-05-09T15:02:05.950Z,20.78
2024-05-09T15:05:11.142Z,20.79
2024-05-09T15:08:13.893Z,20.77
2024-05-09T15:11:16.500Z,20.74
2024-05-09T15:14:19.105Z,20.77
2024-05-09T15:17:21.705Z,20.76
2024-05-09T15:20:31.575Z,20.77
2024-05-09T15:23:38.140Z,20.77
2024-05-09T15:26:40.746Z,20.76
2024-05-09T15:29:43.360Z,20.71
2024-05-09T15:32:46.120Z,20.74
2024-05-09T15:35:51.105Z,20.71
2024-05-09T15:38:55.395Z,20.68
2024-05-09T15:41:57.982Z,20.74
2024-05-09T15:45:01.508Z,20.73
2024-05-09T15:48:05.588Z,20.66
2024-05-09T15:51:08.400Z,20.70
2024-05-09T15:54:11.308Z,20.71
2024-05-09T15:57:14.015Z,20.69
2024-05-09T16:00:24.918Z,20.72
2024-05-09T16:03:36.608Z,20.63
2024-05-09T16:06:39.779Z,20.69
2024-05-09T16:09:42.424Z,20.64
2024-05-09T16:12:45.122Z,20.61
2024-05-09T16:15:47.965Z,20.68
2024-05-09T16:18:50.824Z,20.69
2024-05-09T16:21:53.438Z,20.69
2024-05-09T16:24:56.213Z,20.67
2024-05-09T16:27:59.106Z,20.57
2024-05-09T16:31:02.546Z,20.62
2024-05-09T16:34:05.365Z,20.67
2024-05-09T16:37:10.403Z,20.65
2024-05-09T16:40:22.007Z,20.63
2024-05-09T16:43:32.772Z,20.60
2024-05-09T16:46:35.421Z,20.62
2024-05-09T16:49:38.018Z,20.54
2024-05-09T16:52:40.579Z,20.64
2024-05-09T16:55:43.193Z,20.60
2024-05-09T16:58:45.907Z,20.64
2024-05-09T17:01:48.564Z,20.63
2024-05-09T17:04:51.416Z,20.61
2024-05-09T17:07:54.072Z,20.61
2024-05-09T17:10:56.767Z,20.54
2024-05-09T17:13:59.888Z,20.60
2024-05-09T17:17:02.730Z,20.58
2024-05-09T17:20:18.767Z,20.58
2024-05-09T17:23:29.229Z,20.56
2024-05-09T17:26:32.585Z,20.51
2024-05-09T17:29:35.378Z,20.56
2024-05-09T17:32:38.037Z,20.41
2024-05-09T17:35:40.812Z,20.50
2024-05-09T17:38:46.679Z,20.48
2024-05-09T17:41:50.247Z,20.50
2024-05-09T17:44:53.497Z,20.44
2024-05-09T17:47:56.285Z,20.46
2024-05-09T17:50:58.904Z,20.46
2024-05-09T17:54:01.536Z,20.36
2024-05-09T17:57:04.394Z,20.45
2024-05-09T18:00:11.550Z,20.38
2024-05-09T18:03:17.454Z,20.41
2024-05-09T18:06:20.186Z,20.29
2024-05-09T18:09:22.788Z,20.35
2024-05-09T18:12:25.465Z,20.35
2024-05-09T18:15:28.059Z,20.31
2024-05-09T18:18:30.729Z,20.25
2024-05-09T18:21:33.596Z,20.29
2024-05-09T18:24:36.263Z,20.28
2024-05-09T18:27:38.966Z,20.23
2024-05-09T18:30:41.888Z,20.23
2024-05-09T18:33:44.612Z,20.23
2024-05-09T18:36:47.809Z,20.21
2024-05-09T18:39:50.560Z,20.20
2024-05-09T18:42:53.171Z,20.17
2024-05-09T18:45:55.796Z,20.16
2024-05-09T18:48:58.532Z,20.12
2024-05-09T18:52:01.355Z,20.08
2024-05-09T18:55:05.505Z,20.04
2024-05-09T18:58:08.580Z,20.05
2024-05-09T19:01:11.351Z,20.08
2024-05-09T19:04:18.323Z,20.06
2024-05-09T19:07:21.355Z,20.04
2024-05-09T19:10:28.832Z,20.03
2024-05-09T19:13:36.338Z,20.00
2024-05-09T19:16:39.267Z,19.95
2024-05-09T19:19:41.871Z,19.92
2024-05-09T19:22:44.634Z,19.94
2024-05-09T19:25:47.468Z,19.88
2024-05-09T19:28:50.469Z,19.91
2024-05-09T19:31:53.219Z,19.92
2024-05-09T19:34:55.855Z,19.89
2024-05-09T19:37:58.750Z,19.89
2024-05-09T19:41:01.342Z,19.88
2024-05-09T19:44:04.279Z,19.84
2024-05-09T19:47:07.404Z,19.80
2024-05-09T19:50:14.086Z,19.82
2024-05-09T19:53:22.220Z,19.76
2024-05-09T19:56:24.966Z,19.80
2024-05-09T19:59:27.725Z,19.77
2024-05-09T20:02:30.623Z,19.75
2024-05-09T20:05:34.714Z,19.74
2024-05-09T20:08:37.648Z,19.71
2024-05-09T20:11:40.306Z,19.65
2024-05-09T20:14:43.192Z,19.70
2024-05-09T20:17:46.206Z,19.65
2024-05-09T20:20:51.646Z,19.66
2024-05-09T20:23:56.410Z,19.65
2024-05-09T20:26:59.146Z,19.58
2024-05-09T20:30:01.879Z,19.61
2024-05-09T20:33:07.371Z,19.58
2024-05-09T20:36:11.531Z,19.60
2024-05-09T20:39:14.101Z,19.55
2024-05-09T20:42:16.773Z,19.57
2024-05-09T20:45:19.626Z,19.55
2024-05-09T20:48:22.398Z,19.53
2024-05-09T20:51:26.057Z,19.50
2024-05-09T20:54:29.371Z,19.51
2024-05-09T20:57:32.180Z,19.48
2024-05-09T21:00:40.032Z,19.47
2024-05-09T21:03:47.527Z,19.42
2024-05-09T21:06:50.210Z,19.39
2024-05-09T21:09:52.830Z,19.45
2024-05-09T21:12:55.475Z,19.45
2024-05-09T21:15:58.152Z,19.39
2024-05-09T21:19:00.911Z,19.34
2024-05-09T21:22:03.621Z,19.35
2024-05-09T21:25:06.295Z,19.35
2024-05-09T21:28:08.932Z,19.31
2024-05-09T21:31:11.531Z,19.38
2024-05-09T21:34:14.147Z,19.33
2024-05-09T21:37:16.848Z,19.36
2024-05-09T21:40:27.351Z,19.31
2024-05-09T21:43:38.015Z,19.21
2024-05-09T21:46:40.842Z,19.30
2024-05-09T21:49:43.427Z,19.26
2024-05-09T21:52:45.990Z,19.31
2024-05-09T21:55:48.512Z,19.28
2024-05-09T21:58:51.099Z,19.26
2024-05-09T22:01:53.704Z,19.28
2024-05-09T22:04:56.478Z,19.27
2024-05-09T22:07:59.081Z,19.24
2024-05-09T22:11:01.729Z,19.19
2024-05-09T22:14:04.306Z,19.19
2024-05-09T22:17:06.907Z,19.19
2024-05-09T22:20:17.996Z,19.22
2024-05-09T22:23:24.626Z,19.19
2024-05-09T22:26:27.175Z,19.17
2024-05-09T22:29:29.732Z,19.18
2024-05-09T22:32:32.320Z,19.16
2024-05-09T22:35:34.971Z,19.16
2024-05-09T22:38:37.523Z,19.15
2024-05-09T22:41:41.089Z,19.14
2024-05-09T22:44:43.610Z,19.07
2024-05-09T22:47:46.170Z,19.08
2024-05-09T22:50:48.788Z,19.11
2024-05-09T22:53:51.340Z,19.03
2024-05-09T22:56:53.839Z,19.06
2024-05-09T22:59:56.364Z,19.03
2024-05-09T23:03:02.301Z,19.00
2024-05-09T23:06:06.436Z,19.01
2024-05-09T23:09:09.992Z,18.97
2024-05-09T23:12:17.653Z,19.02
2024-05-09T23:15:20.220Z,19.01
2024-05-09T23:18:22.931Z,19.01
2024-05-09T23:21:25.597Z,18.98
2024-05-09T23:24:28.139Z,18.94
2024-05-09T23:27:30.664Z,18.97
2024-05-09T23:30:38.176Z,18.96
2024-05-09T23:33:47.114Z,18.94
2024-05-09T23:36:49.910Z,18.90
2024-05-09T23:39:53.451Z,18.93
2024-05-09T23:42:56.064Z,18.94
2024-05-09T23:45:58.659Z,18.86
2024-05-09T23:49:01.313Z,18.86
2024-05-09T23:52:04.342Z,18.91
2024-05-09T23:55:09.697Z,18.90
2024-05-09T23:58:12.368Z,18.90
